Terminal Aerodrome Forecast
Issued by NWS

Home | Current Version | Previous Version | Text Only | Print | Product List | Glossary On
Versions: 1 2 3 4 5 6 7 8 9 10 11 12 13 14 15 16 17 18 19 20 21 22 23 24 25
000
FTUS43 KPAH 010812 AAA
TAFOWB
TAF AMD
KOWB 010812Z 0108/0206 00000KT P6SM SCT110
      TEMPO 0110/0112 5SM BR
     FM011400 21004KT P6SM SCT040
     FM020100 00000KT P6SM SKC=

USA.gov is the U.S. government's official web portal to all federal, state and local government web resources and services.